createdAt,value
2018-08-14T00:00:56.301Z,2.10
2018-08-14T00:03:24.237Z,2.30
2018-08-14T00:05:52.246Z,2.37
2018-08-14T00:08:20.031Z,3.50
2018-08-14T00:10:47.882Z,2.10
2018-08-14T00:13:16.168Z,2.20
2018-08-14T00:15:46.206Z,2.00
2018-08-14T00:18:14.084Z,2.30
2018-08-14T00:20:42.042Z,2.10
2018-08-14T00:23:09.982Z,2.20
2018-08-14T00:25:37.946Z,2.10
2018-08-14T00:28:07.094Z,2.17
2018-08-14T00:30:35.096Z,1.90
2018-08-14T00:33:03.097Z,1.93
2018-08-14T00:35:31.130Z,1.83
2018-08-14T00:37:59.265Z,1.90
2018-08-14T00:40:28.794Z,2.00
2018-08-14T00:42:58.447Z,1.87
2018-08-14T00:45:26.256Z,2.17
2018-08-14T00:47:54.098Z,2.03
2018-08-14T00:50:21.913Z,2.07
2018-08-14T00:52:49.841Z,2.40
2018-08-14T00:55:18.997Z,2.10
2018-08-14T00:57:47.365Z,2.80
2018-08-14T01:00:19.628Z,3.50
2018-08-14T01:02:48.427Z,2.10
2018-08-14T01:05:16.620Z,2.40
2018-08-14T01:07:44.807Z,2.37
2018-08-14T01:10:13.710Z,2.17
2018-08-14T01:12:48.162Z,2.20
2018-08-14T01:15:17.468Z,2.90
2018-08-14T01:17:47.157Z,3.20
2018-08-14T01:20:14.965Z,2.10
2018-08-14T01:22:44.250Z,1.97
2018-08-14T01:25:12.106Z,2.80
2018-08-14T01:27:40.058Z,2.50
2018-08-14T01:30:11.855Z,2.00
2018-08-14T01:32:39.601Z,2.07
2018-08-14T01:35:08.860Z,2.20
2018-08-14T01:37:37.069Z,3.50
2018-08-14T01:40:05.254Z,2.30
2018-08-14T01:42:33.342Z,2.10
2018-08-14T01:45:01.318Z,2.17
2018-08-14T01:47:29.732Z,2.03
2018-08-14T01:49:57.575Z,2.27
2018-08-14T01:52:25.529Z,2.53
2018-08-14T01:54:53.495Z,2.30
2018-08-14T01:57:21.434Z,2.40
2018-08-14T01:59:49.295Z,2.47
2018-08-14T02:02:17.111Z,2.50
2018-08-14T02:04:44.893Z,2.30
2018-08-14T02:07:12.711Z,2.60
2018-08-14T02:09:43.927Z,2.40
2018-08-14T02:12:12.040Z,2.60
2018-08-14T02:14:40.139Z,1.93
2018-08-14T02:17:08.330Z,2.53
2018-08-14T02:19:36.703Z,2.53
2018-08-14T02:22:05.031Z,2.40
2018-08-14T02:24:33.074Z,1.93
2018-08-14T02:27:01.156Z,2.43
2018-08-14T02:29:29.376Z,2.30
2018-08-14T02:31:57.766Z,2.63
2018-08-14T02:34:25.673Z,2.20
2018-08-14T02:36:53.578Z,2.30
2018-08-14T02:39:21.474Z,2.23
2018-08-14T02:41:49.369Z,2.43
2018-08-14T02:44:17.115Z,2.50
2018-08-14T02:46:44.971Z,2.40
2018-08-14T02:49:12.889Z,2.40
2018-08-14T02:51:40.839Z,4.87
2018-08-14T02:54:08.716Z,2.17
2018-08-14T02:56:36.806Z,2.20
2018-08-14T02:59:04.783Z,2.90
2018-08-14T03:01:32.803Z,2.50
2018-08-14T03:04:01.011Z,2.60
2018-08-14T03:06:29.138Z,2.30
2018-08-14T03:08:56.937Z,2.63
2018-08-14T03:11:24.919Z,2.23
2018-08-14T03:13:52.857Z,2.13
2018-08-14T03:16:20.755Z,2.50
2018-08-14T03:18:48.624Z,1.87
2018-08-14T03:21:16.590Z,3.00
2018-08-14T03:23:44.510Z,3.17
2018-08-14T03:26:12.434Z,2.93
2018-08-14T03:28:40.434Z,3.53
2018-08-14T03:31:08.401Z,2.60
2018-08-14T03:33:36.315Z,2.20
2018-08-14T03:36:04.274Z,3.20
2018-08-14T03:38:32.495Z,2.10
2018-08-14T03:41:00.871Z,2.00
2018-08-14T03:43:29.039Z,3.20
2018-08-14T03:45:56.771Z,2.17
2018-08-14T03:48:24.670Z,2.23
2018-08-14T03:50:52.690Z,2.80
2018-08-14T03:53:20.583Z,2.20
2018-08-14T03:55:48.571Z,2.50
2018-08-14T03:58:16.519Z,2.50
2018-08-14T04:00:44.536Z,2.20
2018-08-14T04:03:12.489Z,2.10
2018-08-14T04:05:40.321Z,2.23
2018-08-14T04:08:08.507Z,2.37
2018-08-14T04:10:36.469Z,2.50
2018-08-14T04:13:04.630Z,2.17
2018-08-14T04:15:32.613Z,4.67
2018-08-14T04:18:10.216Z,2.67
2018-08-14T04:20:38.672Z,2.37
2018-08-14T04:23:06.636Z,2.67
2018-08-14T04:25:34.608Z,2.07
2018-08-14T04:28:02.493Z,2.07
2018-08-14T04:30:30.513Z,3.27
2018-08-14T04:32:58.639Z,2.30
2018-08-14T04:35:26.582Z,3.57
2018-08-14T04:37:54.488Z,2.17
2018-08-14T04:40:22.307Z,2.00
2018-08-14T04:42:50.075Z,2.17
2018-08-14T04:45:17.954Z,3.70
2018-08-14T04:47:45.750Z,2.20
2018-08-14T04:50:14.155Z,2.50
2018-08-14T04:52:42.238Z,2.50
2018-08-14T04:55:11.662Z,2.93
2018-08-14T04:57:39.783Z,3.73
2018-08-14T05:00:10.864Z,2.60
2018-08-14T05:02:38.785Z,3.30
2018-08-14T05:05:08.433Z,2.33
2018-08-14T05:07:36.577Z,3.67
2018-08-14T05:10:05.555Z,4.07
2018-08-14T05:12:33.463Z,3.80
2018-08-14T05:15:01.746Z,3.93
2018-08-14T05:17:30.210Z,2.50
2018-08-14T05:19:58.129Z,3.60
2018-08-14T05:22:25.900Z,3.37
2018-08-14T05:24:53.743Z,3.10
2018-08-14T05:27:21.671Z,2.30
2018-08-14T05:29:49.736Z,2.30
2018-08-14T05:32:17.691Z,2.53
2018-08-14T05:34:45.542Z,2.33
2018-08-14T05:37:13.329Z,2.33
2018-08-14T05:39:41.193Z,2.17
2018-08-14T05:42:09.147Z,2.27
2018-08-14T05:44:37.191Z,3.13
2018-08-14T05:47:05.283Z,2.63
2018-08-14T05:49:33.464Z,2.20
2018-08-14T05:52:01.592Z,2.47
2018-08-14T05:54:30.146Z,2.30
2018-08-14T05:56:58.012Z,2.50
2018-08-14T05:59:25.863Z,3.63
2018-08-14T06:01:53.844Z,2.50
2018-08-14T06:04:21.793Z,2.50
2018-08-14T06:06:49.758Z,2.47
2018-08-14T06:09:17.445Z,2.93
2018-08-14T06:11:45.334Z,1.90
2018-08-14T06:14:13.113Z,3.60
2018-08-14T06:16:41.135Z,2.23
2018-08-14T06:19:09.461Z,2.20
2018-08-14T06:21:37.549Z,2.23
2018-08-14T06:24:05.504Z,1.90
2018-08-14T06:26:33.732Z,1.80
2018-08-14T06:29:01.920Z,1.80
2018-08-14T06:31:30.089Z,1.80
2018-08-14T06:33:57.908Z,1.70
2018-08-14T06:36:25.833Z,1.80
2018-08-14T06:38:53.816Z,2.20
2018-08-14T06:41:21.777Z,2.70
2018-08-14T06:43:49.812Z,1.60
2018-08-14T06:46:17.773Z,2.10
2018-08-14T06:48:45.764Z,1.97
2018-08-14T06:51:13.724Z,1.43
2018-08-14T06:53:41.600Z,1.53
2018-08-14T06:56:09.557Z,1.30
2018-08-14T06:58:37.510Z,1.97
2018-08-14T07:01:05.472Z,1.60
2018-08-14T07:03:33.519Z,1.87
2018-08-14T07:06:01.686Z,1.77
2018-08-14T07:08:29.809Z,1.63
2018-08-14T07:10:57.752Z,1.07
2018-08-14T07:13:25.674Z,1.30
2018-08-14T07:15:53.601Z,1.57
2018-08-14T07:18:21.446Z,1.10
2018-08-14T07:20:49.278Z,1.10
2018-08-14T07:23:17.161Z,1.50
2018-08-14T07:25:45.096Z,2.10
2018-08-14T07:28:13.042Z,1.00
2018-08-14T07:30:41.030Z,1.87
2018-08-14T07:33:09.104Z,1.40
2018-08-14T07:35:37.004Z,2.33
2018-08-14T07:38:05.070Z,1.07
2018-08-14T07:40:33.082Z,1.23
2018-08-14T07:43:01.052Z,1.53
2018-08-14T07:45:33.737Z,1.33
2018-08-14T07:48:01.785Z,1.97
2018-08-14T07:50:29.960Z,2.03
2018-08-14T07:52:57.902Z,1.50
2018-08-14T07:55:25.779Z,1.80
2018-08-14T07:57:53.732Z,1.83
2018-08-14T08:00:22.239Z,1.33
2018-08-14T08:02:51.199Z,1.20
2018-08-14T08:05:20.059Z,3.00
2018-08-14T08:07:48.489Z,2.93
2018-08-14T08:10:17.003Z,1.17
2018-08-14T08:12:45.505Z,1.33
2018-08-14T08:15:15.338Z,2.03
2018-08-14T08:17:43.748Z,1.10
2018-08-14T08:20:35.086Z,1.10
2018-08-14T08:23:04.946Z,1.27
2018-08-14T08:25:33.989Z,2.67
2018-08-14T08:28:02.837Z,1.40
2018-08-14T08:30:32.216Z,2.87
2018-08-14T08:33:01.140Z,2.80
2018-08-14T08:35:30.281Z,1.00
2018-08-14T08:37:59.431Z,1.93
2018-08-14T08:40:28.341Z,3.23
2018-08-14T08:42:56.665Z,1.13
2018-08-14T08:45:24.880Z,4.23
2018-08-14T08:48:04.312Z,2.37
2018-08-14T08:50:33.214Z,1.03
2018-08-14T08:53:01.100Z,2.30
2018-08-14T08:55:30.539Z,2.13
2018-08-14T08:57:59.447Z,0.93
2018-08-14T09:00:27.508Z,1.03
2018-08-14T09:02:55.566Z,1.37
2018-08-14T09:05:23.463Z,2.07
2018-08-14T09:07:51.474Z,2.10
2018-08-14T09:10:19.584Z,2.97
2018-08-14T09:12:47.541Z,1.17
2018-08-14T09:15:15.595Z,1.10
2018-08-14T09:17:43.687Z,1.20
2018-08-14T09:20:13.612Z,1.53
2018-08-14T09:22:41.886Z,4.37
2018-08-14T09:25:12.190Z,1.70
2018-08-14T09:27:40.910Z,1.53
2018-08-14T09:30:11.525Z,3.80
2018-08-14T09:32:39.682Z,1.37
2018-08-14T09:35:08.076Z,2.67
2018-08-14T09:37:37.126Z,1.43
2018-08-14T09:40:05.729Z,2.13
2018-08-14T09:42:33.926Z,1.43
2018-08-14T09:45:02.351Z,4.50
2018-08-14T09:47:30.908Z,0.80
2018-08-14T09:49:59.272Z,1.17
2018-08-14T09:52:27.247Z,0.90
2018-08-14T09:54:55.277Z,1.37
2018-08-14T09:57:23.163Z,2.60
2018-08-14T09:59:51.015Z,2.30
2018-08-14T10:02:23.768Z,3.03
2018-08-14T10:05:56.498Z,2.73
2018-08-14T10:08:24.475Z,0.90
2018-08-14T10:10:52.353Z,2.20
2018-08-14T10:13:20.282Z,0.93
2018-08-14T10:15:49.325Z,1.87
2018-08-14T10:18:18.901Z,1.43
2018-08-14T10:20:46.863Z,0.90
2018-08-14T10:23:14.736Z,1.30
2018-08-14T10:25:42.672Z,0.90
2018-08-14T10:28:12.128Z,7.43
2018-08-14T10:30:40.069Z,1.47
2018-08-14T10:33:08.838Z,0.97
2018-08-14T10:35:36.978Z,4.47
2018-08-14T10:38:05.703Z,1.07
2018-08-14T10:40:33.790Z,1.37
2018-08-14T10:43:01.990Z,0.90
2018-08-14T10:45:30.547Z,0.60
2018-08-14T10:47:59.431Z,1.17
2018-08-14T10:50:27.569Z,0.80
2018-08-14T10:52:55.592Z,1.40
2018-08-14T10:55:23.586Z,3.40
2018-08-14T10:57:51.727Z,0.60
2018-08-14T11:00:21.956Z,1.50
2018-08-14T11:02:50.260Z,11.83
2018-08-14T11:05:19.041Z,24.10
2018-08-14T11:07:47.758Z,3.80
2018-08-14T11:10:18.381Z,2.10
2018-08-14T11:12:46.467Z,1.80
2018-08-14T11:15:14.550Z,2.80
2018-08-14T11:17:43.178Z,1.20
2018-08-14T11:20:25.818Z,1.70
2018-08-14T11:22:53.856Z,1.73
2018-08-14T11:25:21.939Z,4.40
2018-08-14T11:30:30.920Z,3.20
2018-08-14T11:32:59.474Z,1.10
2018-08-14T11:35:32.907Z,2.70
2018-08-14T11:38:01.469Z,1.37
2018-08-14T11:40:30.622Z,1.20
2018-08-14T11:42:59.210Z,2.17
2018-08-14T11:45:28.589Z,3.73
2018-08-14T11:47:56.697Z,3.00
2018-08-14T11:50:24.908Z,1.53
2018-08-14T11:52:54.112Z,4.27
2018-08-14T11:55:22.455Z,2.93
2018-08-14T11:57:51.165Z,1.53
2018-08-14T12:00:25.598Z,1.60
2018-08-14T12:02:55.255Z,3.07
2018-08-14T12:05:23.405Z,1.50
2018-08-14T12:07:51.790Z,1.87
2018-08-14T12:10:19.857Z,2.70
2018-08-14T12:12:47.993Z,1.30
2018-08-14T12:15:16.555Z,1.67
2018-08-14T12:17:46.258Z,4.57
2018-08-14T12:20:16.876Z,5.43
2018-08-14T12:22:44.916Z,2.17
2018-08-14T12:25:14.859Z,1.57
2018-08-14T12:27:43.067Z,1.70
2018-08-14T12:30:14.206Z,4.83
2018-08-14T12:32:42.366Z,2.93
2018-08-14T12:35:10.748Z,1.57
2018-08-14T12:37:38.837Z,1.67
2018-08-14T12:40:08.445Z,1.60
2018-08-14T12:42:36.786Z,2.70
2018-08-14T12:45:09.006Z,1.73
2018-08-14T12:47:36.868Z,3.87
2018-08-14T12:50:05.877Z,1.77
2018-08-14T12:52:34.152Z,3.77
2018-08-14T12:55:02.325Z,2.20
2018-08-14T12:57:31.274Z,2.00
2018-08-14T13:00:00.652Z,2.00
2018-08-14T13:02:29.235Z,2.93
2018-08-14T13:04:57.276Z,1.60
2018-08-14T13:07:25.217Z,1.40
2018-08-14T13:09:52.991Z,2.30
2018-08-14T13:12:21.665Z,2.20
2018-08-14T13:14:49.836Z,2.60
2018-08-14T13:17:17.844Z,2.83
2018-08-14T13:19:45.749Z,2.20
2018-08-14T13:22:13.732Z,1.60
2018-08-14T13:24:42.055Z,2.00
2018-08-14T13:27:10.129Z,2.63
2018-08-14T13:29:38.187Z,1.50
2018-08-14T13:32:06.641Z,1.83
2018-08-14T13:34:34.681Z,2.37
2018-08-14T13:37:02.844Z,1.53
2018-08-14T13:39:31.179Z,2.20
2018-08-14T13:41:59.335Z,3.67
2018-08-14T13:44:27.292Z,2.53
2018-08-14T13:46:55.369Z,3.93
2018-08-14T13:49:23.417Z,2.80
2018-08-14T13:51:51.456Z,4.83
2018-08-14T13:54:19.319Z,2.37
2018-08-14T13:56:47.269Z,2.00
2018-08-14T13:59:15.339Z,2.50
2018-08-14T14:01:43.264Z,3.10
2018-08-14T14:04:11.199Z,3.53
2018-08-14T14:06:39.203Z,1.77
2018-08-14T14:09:07.440Z,2.80
2018-08-14T14:11:35.538Z,2.40
2018-08-14T14:14:04.513Z,2.13
2018-08-14T14:16:32.764Z,2.43
2018-08-14T14:19:00.946Z,4.37
2018-08-14T14:21:30.276Z,3.23
2018-08-14T14:23:58.786Z,2.20
2018-08-14T14:26:26.829Z,4.73
2018-08-14T14:28:54.723Z,3.87
2018-08-14T14:31:22.678Z,2.03
2018-08-14T14:33:50.493Z,3.00
2018-08-14T14:36:18.423Z,3.63
2018-08-14T14:38:46.517Z,4.90
2018-08-14T14:41:15.684Z,1.80
2018-08-14T14:43:43.766Z,2.57
2018-08-14T14:46:11.712Z,2.10
2018-08-14T14:48:39.790Z,2.00
2018-08-14T14:51:07.861Z,9.30
2018-08-14T14:53:35.940Z,3.73
2018-08-14T14:56:03.878Z,1.97
2018-08-14T14:58:32.281Z,1.90
2018-08-14T15:01:00.437Z,2.00
2018-08-14T15:03:28.604Z,2.37
2018-08-14T15:05:56.719Z,2.03
2018-08-14T15:08:24.675Z,2.50
2018-08-14T15:10:52.755Z,2.13
2018-08-14T15:13:20.759Z,2.40
2018-08-14T15:15:48.728Z,2.80
2018-08-14T15:18:16.759Z,3.23
2018-08-14T15:20:44.746Z,1.83
2018-08-14T15:23:13.111Z,2.93
2018-08-14T15:25:41.296Z,5.60
2018-08-14T15:29:13.363Z,2.23
2018-08-14T15:31:49.146Z,1.70
2018-08-14T15:34:19.666Z,2.60
2018-08-14T15:36:49.752Z,2.40
2018-08-14T15:39:18.906Z,1.30
2018-08-14T15:41:46.897Z,2.03
2018-08-14T15:44:15.022Z,1.90
2018-08-14T15:46:42.890Z,1.80
2018-08-14T15:49:11.403Z,2.00
2018-08-14T15:51:39.940Z,2.20
2018-08-14T15:54:09.025Z,2.50
2018-08-14T15:56:37.156Z,2.10
2018-08-14T15:59:05.383Z,2.00
2018-08-14T16:01:33.939Z,4.40
2018-08-14T16:06:54.049Z,2.30
2018-08-14T16:09:22.288Z,2.83
2018-08-14T16:11:50.572Z,2.27
2018-08-14T16:14:18.386Z,2.80
2018-08-14T16:16:46.233Z,2.57
2018-08-14T16:19:15.160Z,3.50
2018-08-14T16:21:42.943Z,3.33
2018-08-14T16:24:11.983Z,4.83
2018-08-14T16:26:39.632Z,2.50
2018-08-14T16:29:07.536Z,4.10
2018-08-14T16:31:35.198Z,2.47
2018-08-14T16:34:02.939Z,4.27
2018-08-14T16:36:31.488Z,2.60
2018-08-14T16:39:02.143Z,4.07
2018-08-14T16:41:30.644Z,2.33
2018-08-14T16:43:59.592Z,3.03
2018-08-14T16:46:31.180Z,3.30
2018-08-14T16:49:00.614Z,4.03
2018-08-14T16:51:29.845Z,2.70
2018-08-14T16:53:59.231Z,3.07
2018-08-14T16:56:27.644Z,2.70
2018-08-14T16:58:55.745Z,3.27
2018-08-14T17:01:23.739Z,2.53
2018-08-14T17:03:51.704Z,2.67
2018-08-14T17:06:20.388Z,2.50
2018-08-14T17:08:48.713Z,2.30
2018-08-14T17:11:16.750Z,2.20
2018-08-14T17:13:50.191Z,4.03
2018-08-14T17:16:18.225Z,2.67
2018-08-14T17:18:46.165Z,2.40
2018-08-14T17:21:12.839Z,2.30
2018-08-14T17:23:40.767Z,2.70
2018-08-14T17:26:08.906Z,2.80
2018-08-14T17:28:36.954Z,2.70
2018-08-14T17:31:05.841Z,3.93
2018-08-14T17:33:33.844Z,2.97
2018-08-14T17:36:02.379Z,2.50
2018-08-14T17:38:31.128Z,2.57
2018-08-14T17:40:59.480Z,3.83
2018-08-14T17:43:27.685Z,2.77
2018-08-14T17:45:55.799Z,3.30
2018-08-14T17:48:23.790Z,3.53
2018-08-14T17:50:51.800Z,3.27
2018-08-14T17:53:19.592Z,3.60
2018-08-14T17:55:48.027Z,4.27
2018-08-14T17:58:16.032Z,4.20
2018-08-14T18:00:43.965Z,3.57
2018-08-14T18:03:11.979Z,3.70
2018-08-14T18:05:40.138Z,3.63
2018-08-14T18:08:10.615Z,3.53
2018-08-14T18:10:38.643Z,3.43
2018-08-14T18:13:06.972Z,3.80
2018-08-14T18:15:35.135Z,3.80
2018-08-14T18:18:03.242Z,4.20
2018-08-14T18:20:31.490Z,3.67
2018-08-14T18:23:00.283Z,3.27
2018-08-14T18:25:30.384Z,3.87
2018-08-14T18:27:59.884Z,4.17
2018-08-14T18:30:28.035Z,4.50
2018-08-14T18:32:56.044Z,4.33
2018-08-14T18:35:23.902Z,4.57
2018-08-14T18:37:51.903Z,4.77
2018-08-14T18:40:31.268Z,4.20
2018-08-14T18:43:01.615Z,4.40
2018-08-14T18:45:31.096Z,4.80
2018-08-14T18:47:59.853Z,4.37
2018-08-14T18:50:28.860Z,4.33
2018-08-14T18:52:57.133Z,4.10
2018-08-14T18:55:24.939Z,4.33
2018-08-14T18:57:53.863Z,4.20
2018-08-14T19:00:25.682Z,4.23
2018-08-14T19:02:55.705Z,4.57
2018-08-14T19:05:24.107Z,4.40
2018-08-14T19:10:27.951Z,4.93
2018-08-14T19:12:56.086Z,4.43
2018-08-14T19:15:29.955Z,4.77
2018-08-14T19:17:59.752Z,4.10
2018-08-14T19:20:33.103Z,4.37
2018-08-14T19:23:02.215Z,5.40
2018-08-14T19:25:31.887Z,5.30
2018-08-14T19:28:00.506Z,4.50
2018-08-14T19:30:32.429Z,5.13
2018-08-14T19:33:00.672Z,5.13
2018-08-14T19:35:29.629Z,4.60
2018-08-14T19:37:58.633Z,4.50
2018-08-14T19:40:26.526Z,4.40
2018-08-14T19:42:54.597Z,4.33
2018-08-14T19:45:22.520Z,5.17
2018-08-14T19:47:50.577Z,4.17
2018-08-14T19:50:19.392Z,4.20
2018-08-14T19:52:47.296Z,5.23
2018-08-14T19:55:16.689Z,5.63
2018-08-14T19:57:46.001Z,4.87
2018-08-14T20:00:15.479Z,4.33
2018-08-14T20:02:43.675Z,4.40
2018-08-14T20:05:13.563Z,5.90
2018-08-14T20:07:41.471Z,4.90
2018-08-14T20:10:10.891Z,4.97
2018-08-14T20:12:38.845Z,5.13
2018-08-14T20:15:09.185Z,5.77
2018-08-14T20:17:37.285Z,6.07
2018-08-14T20:20:10.294Z,6.47
2018-08-14T20:22:38.231Z,7.33
2018-08-14T20:25:06.210Z,5.87
2018-08-14T20:27:34.282Z,6.97
2018-08-14T20:30:02.368Z,5.30
2018-08-14T20:32:31.042Z,4.80
2018-08-14T20:34:59.868Z,5.13
2018-08-14T20:37:29.028Z,4.90
2018-08-14T20:39:57.129Z,5.77
2018-08-14T20:42:25.470Z,5.80
2018-08-14T20:44:55.386Z,5.37
2018-08-14T20:47:24.449Z,4.30
2018-08-14T20:49:52.319Z,4.80
2018-08-14T20:52:20.356Z,4.53
2018-08-14T20:54:48.165Z,5.80
2018-08-14T20:57:16.041Z,5.07
2018-08-14T20:59:44.076Z,4.93
2018-08-14T21:02:12.236Z,4.60
2018-08-14T21:04:40.262Z,5.10
2018-08-14T21:07:08.198Z,4.27
2018-08-14T21:09:36.124Z,4.97
2018-08-14T21:12:04.667Z,4.67
2018-08-14T21:14:32.815Z,5.03
2018-08-14T21:17:01.310Z,4.67
2018-08-14T21:19:30.220Z,6.40
2018-08-14T21:21:58.836Z,5.40
2018-08-14T21:24:26.811Z,5.20
2018-08-14T21:26:54.668Z,5.20
2018-08-14T21:29:22.641Z,5.33
2018-08-14T21:31:50.584Z,5.70
2018-08-14T21:34:18.308Z,4.97
2018-08-14T21:36:45.954Z,4.90
2018-08-14T21:39:13.613Z,5.00
2018-08-14T21:41:41.278Z,4.80
2018-08-14T21:44:08.858Z,5.97
2018-08-14T21:46:36.548Z,5.03
2018-08-14T21:49:04.256Z,5.80
2018-08-14T21:51:32.002Z,5.10
2018-08-14T21:54:01.015Z,4.43
2018-08-14T21:56:29.513Z,4.50
2018-08-14T21:58:57.366Z,4.53
2018-08-14T22:01:24.958Z,5.20
2018-08-14T22:03:52.667Z,4.70
2018-08-14T22:06:20.171Z,5.10
2018-08-14T22:08:47.693Z,4.80
2018-08-14T22:11:15.272Z,5.43
2018-08-14T22:13:42.784Z,6.20
2018-08-14T22:16:10.337Z,4.90
2018-08-14T22:18:38.025Z,5.10
2018-08-14T22:21:05.696Z,5.50
2018-08-14T22:23:33.311Z,4.90
2018-08-14T22:26:01.013Z,5.70
2018-08-14T22:28:28.706Z,5.87
2018-08-14T22:30:56.206Z,5.50
2018-08-14T22:33:24.761Z,5.60
2018-08-14T22:35:52.340Z,5.37
2018-08-14T22:38:19.907Z,5.00
2018-08-14T22:40:47.408Z,5.20
2018-08-14T22:43:14.950Z,5.47
2018-08-14T22:45:42.443Z,5.27
2018-08-14T22:48:10.286Z,5.33
2018-08-14T22:50:37.879Z,4.97
2018-08-14T22:53:06.528Z,5.43
2018-08-14T22:55:34.166Z,6.40
2018-08-14T22:58:01.814Z,6.10
2018-08-14T23:00:29.492Z,5.30
2018-08-14T23:02:57.036Z,6.50
2018-08-14T23:05:25.517Z,6.10
2018-08-14T23:07:52.983Z,5.73
2018-08-14T23:10:20.542Z,6.20
2018-08-14T23:12:48.064Z,5.80
2018-08-14T23:15:15.674Z,6.33
2018-08-14T23:17:43.198Z,5.50
2018-08-14T23:20:12.241Z,5.90
2018-08-14T23:22:40.143Z,5.73
2018-08-14T23:25:08.430Z,6.00
2018-08-14T23:27:36.018Z,5.87
2018-08-14T23:30:05.029Z,6.30
2018-08-14T23:32:32.687Z,5.97
2018-08-14T23:35:00.478Z,6.30
2018-08-14T23:37:28.009Z,6.53
2018-08-14T23:39:55.566Z,5.97
2018-08-14T23:42:23.026Z,6.00
2018-08-14T23:44:50.625Z,6.50
2018-08-14T23:47:18.078Z,5.80
2018-08-14T23:49:45.562Z,7.00
2018-08-14T23:52:13.170Z,6.50
2018-08-14T23:54:40.697Z,6.17
2018-08-14T23:57:08.312Z,6.53
2018-08-14T23:59:41.161Z,6.53
